Elizabeth, Mississippi
Current Conditions -  °F | °C
As of 2:53 PM on Friday 24 Oct 2014 (Local Time) from KGLH Reporting Station
Clear Clear  
Wind Chill: 73°   Ceiling: Unl
Heat Index: 73°   Visibility: 10mi
Dew Point: 48°   Wind: 6mph
Humidity: 41%   Direction: 330°NNW
Pressure: 30.1"   Gusts: NA
Location:  33.4469°N, 90.8665°W
Report Text: KGLH 241953Z AUTO 33005KT 10SM CLR 23/09 A3010 RMK AO2 SLP201 T02280089
Loading
Personal Weather Stations






























Interactive Weather Map
Tropical Storm Tracking
New forecast layout! Learn more

10-Day Weather Forecast

Advertisements
Track Severe Weather on mobile